Time;durP1;ratioP1;P1;durP2;ratioP2;P2;SDS_P1;SDS_P2;PMS_P1;PMS_P2;Temp;Humidity;BMP_temperature;BMP_pressure;BME280_temperature;BME280_humidity;BME280_pressure;Samples;Min_cycle;Max_cycle;Signal;HPM_P1;HPM_P2
2021/06/06 00:00:48;;;;;;;9.15;4.28;;;18.30;68.60;;;;;;5074517;28;20715;-74
2021/06/06 00:03:28;;;;;;;13.18;4.85;;;18.20;68.80;;;;;;5073268;28;20027;-74
2021/06/06 00:06:26;;;;;;;10.90;4.63;;;18.20;69.00;;;;;;5074652;28;20069;-74
2021/06/06 00:08:53;;;;;;;10.50;5.05;;;18.20;69.30;;;;;;5074527;28;20082;-74
2021/06/06 00:11:23;;;;;;;13.65;4.65;;;18.10;69.40;;;;;;5077031;28;20020;-74
2021/06/06 00:13:50;;;;;;;13.23;4.78;;;18.10;69.40;;;;;;5095037;28;20020;-74
2021/06/06 00:16:24;;;;;;;12.50;5.20;;;18.10;69.30;;;;;;5094394;28;20028;-74
2021/06/06 00:18:50;;;;;;;7.97;4.97;;;18.10;69.80;;;;;;5094271;28;20032;-74
2021/06/06 00:21:17;;;;;;;14.13;7.63;;;18.10;70.00;;;;;;5092940;28;20432;-74
2021/06/06 00:23:42;;;;;;;17.38;8.23;;;18.10;70.30;;;;;;5094867;28;20027;-74
2021/06/06 00:26:10;;;;;;;17.65;7.35;;;18.10;69.50;;;;;;5094404;28;20027;-74
2021/06/06 00:28:36;;;;;;;17.20;6.63;;;18.10;69.40;;;;;;5092874;28;20425;-74
2021/06/06 00:31:04;;;;;;;22.23;7.53;;;18.10;70.00;;;;;;5094350;28;20028;-74
2021/06/06 00:33:31;;;;;;;22.85;8.23;;;18.10;69.40;;;;;;5093859;28;20024;-74
2021/06/06 00:35:57;;;;;;;24.63;8.60;;;18.10;69.30;;;;;;5093841;28;20031;-74
2021/06/06 00:38:22;;;;;;;14.75;6.47;;;18.10;69.30;;;;;;5094308;28;20374;-74
2021/06/06 00:40:48;;;;;;;11.57;6.25;;;18.10;69.50;;;;;;5093876;28;20062;-74
2021/06/06 00:43:15;;;;;;;16.88;6.43;;;18.00;69.70;;;;;;5093857;28;20071;-74
2021/06/06 00:45:41;;;;;;;15.10;6.25;;;18.00;69.80;;;;;;5092154;28;20514;-73
2021/06/06 00:48:08;;;;;;;13.90;5.68;;;17.90;70.20;;;;;;5094030;28;20470;-73
2021/06/06 00:50:40;;;;;;;11.40;5.13;;;17.80;70.60;;;;;;5093450;28;20097;-73
2021/06/06 00:53:12;;;;;;;11.25;6.20;;;17.60;71.40;;;;;;5094106;28;20050;-73
2021/06/06 00:55:39;;;;;;;10.80;5.72;;;17.40;72.00;;;;;;5093766;28;20035;-73
2021/06/06 00:58:12;;;;;;;12.32;6.15;;;17.30;72.20;;;;;;5093964;28;20032;-74
2021/06/06 01:00:41;;;;;;;12.30;6.05;;;17.20;72.50;;;;;;5093374;28;20111;-74
2021/06/06 01:03:08;;;;;;;11.05;6.07;;;17.10;72.70;;;;;;5093753;28;20466;-74
2021/06/06 01:05:49;;;;;;;12.30;6.20;;;17.10;73.20;;;;;;5093522;28;20024;-74
2021/06/06 01:08:17;;;;;;;12.57;6.70;;;17.00;73.40;;;;;;5094252;28;20028;-75
2021/06/06 01:10:44;;;;;;;12.95;6.43;;;16.90;73.40;;;;;;5093341;28;20053;-74
2021/06/06 01:13:37;;;;;;;15.63;7.70;;;16.80;73.90;;;;;;5109085;28;20025;-74
2021/06/06 01:16:12;;;;;;;13.75;6.40;;;16.70;74.00;;;;;;5092409;28;20020;-74
2021/06/06 01:18:41;;;;;;;13.68;6.13;;;16.50;74.80;;;;;;5092021;28;20036;-74
2021/06/06 01:21:10;;;;;;;13.20;7.60;;;16.40;75.40;;;;;;5093152;28;20513;-74
2021/06/06 01:23:57;;;;;;;18.13;9.85;;;16.40;75.70;;;;;;5093335;28;20020;-74
2021/06/06 01:26:37;;;;;;;15.07;7.88;;;16.40;75.30;;;;;;5093294;28;20058;-74
2021/06/06 01:29:11;;;;;;;19.17;10.20;;;16.30;75.30;;;;;;5093335;28;20494;-73
2021/06/06 01:31:41;;;;;;;18.98;8.85;;;16.30;75.00;;;;;;5079972;28;20021;-74
2021/06/06 01:34:10;;;;;;;20.75;9.43;;;16.30;75.00;;;;;;5093124;28;20016;-74
2021/06/06 01:36:40;;;;;;;17.15;7.70;;;16.30;75.50;;;;;;5092616;28;20107;-74
2021/06/06 01:39:12;;;;;;;12.95;7.50;;;16.10;76.00;;;;;;5092973;28;20039;-73
2021/06/06 01:41:43;;;;;;;19.38;8.45;;;16.00;76.70;;;;;;5093487;28;20028;-74
2021/06/06 01:44:16;;;;;;;14.48;8.20;;;15.90;77.30;;;;;;5093059;28;20043;-73
2021/06/06 01:46:54;;;;;;;14.07;8.15;;;15.90;77.90;;;;;;5092659;28;20100;-73
2021/06/06 01:49:22;;;;;;;12.10;7.78;;;15.80;78.30;;;;;;5093678;28;20035;-73
2021/06/06 01:51:53;;;;;;;15.27;8.55;;;15.80;78.60;;;;;;5108553;28;20032;-73
2021/06/06 01:54:21;;;;;;;16.45;8.65;;;15.70;78.60;;;;;;5093236;28;20482;-73
2021/06/06 01:56:51;;;;;;;16.63;8.55;;;15.70;78.80;;;;;;5092620;28;20033;-73
2021/06/06 01:59:24;;;;;;;12.15;7.90;;;15.70;79.20;;;;;;5092221;28;20039;-74
2021/06/06 02:01:51;;;;;;;19.23;8.77;;;15.70;79.40;;;;;;5092774;28;20027;-74
2021/06/06 02:04:17;;;;;;;16.50;8.25;;;15.70;79.90;;;;;;5091866;28;20020;-74
2021/06/06 02:06:47;;;;;;;13.38;8.60;;;15.70;79.80;;;;;;5092737;28;20024;-73
2021/06/06 02:09:17;;;;;;;15.63;7.95;;;15.70;80.20;;;;;;5092871;28;20032;-73
2021/06/06 02:11:51;;;;;;;14.18;7.75;;;15.70;80.20;;;;;;5092732;28;20047;-74
2021/06/06 02:14:21;;;;;;;14.23;7.80;;;15.70;80.30;;;;;;5092795;28;20050;-74
2021/06/06 02:16:50;;;;;;;15.02;7.95;;;15.70;80.60;;;;;;5092625;28;20470;-74
2021/06/06 02:19:17;;;;;;;18.45;8.82;;;15.70;80.90;;;;;;5092631;28;20035;-76
2021/06/06 02:21:44;;;;;;;17.15;8.50;;;15.70;81.20;;;;;;5093139;28;20106;-77
2021/06/06 02:24:10;;;;;;;16.25;8.75;;;15.70;81.40;;;;;;5092276;28;20020;-77
2021/06/06 02:26:54;;;;;;;13.30;8.05;;;15.60;81.50;;;;;;5092884;28;20107;-77
2021/06/06 02:29:43;;;;;;;15.75;8.30;;;15.60;81.70;;;;;;5092468;28;20126;-76
2021/06/06 02:32:15;;;;;;;14.43;7.78;;;15.60;81.90;;;;;;5092767;28;20048;-76
2021/06/06 02:34:44;;;;;;;20.65;8.48;;;15.60;82.40;;;;;;5092273;28;20023;-77
2021/06/06 02:37:27;;;;;;;16.55;8.05;;;15.60;82.80;;;;;;5091375;28;20020;-77
2021/06/06 02:40:01;;;;;;;17.65;8.20;;;15.70;82.90;;;;;;5092687;28;20090;-78
2021/06/06 02:42:34;;;;;;;16.17;7.30;;;15.70;82.90;;;;;;5092562;28;20103;-76
2021/06/06 02:45:15;;;;;;;14.50;7.18;;;15.80;82.80;;;;;;5092559;28;20020;-77
2021/06/06 02:47:42;;;;;;;18.48;6.47;;;15.80;82.80;;;;;;5092353;28;20470;-77
2021/06/06 02:50:15;;;;;;;20.50;7.20;;;15.90;83.10;;;;;;5092449;28;20051;-77
2021/06/06 02:52:53;;;;;;;14.68;7.15;;;15.90;83.20;;;;;;5092211;28;20027;-76
2021/06/06 02:55:25;;;;;;;12.95;6.88;;;16.10;83.30;;;;;;5107923;28;20107;-77
2021/06/06 02:58:06;;;;;;;16.10;7.32;;;16.10;83.20;;;;;;5090721;28;20081;-76
2021/06/06 03:00:40;;;;;;;11.60;7.15;;;16.20;83.00;;;;;;5077482;28;20028;-76
2021/06/06 03:03:12;;;;;;;13.38;6.97;;;16.20;82.70;;;;;;5092631;28;20024;-76
2021/06/06 03:05:38;;;;;;;13.98;7.13;;;16.30;82.80;;;;;;5092677;28;20027;-76
2021/06/06 03:08:07;;;;;;;14.70;6.85;;;16.30;82.70;;;;;;5092287;28;20039;-77
2021/06/06 03:10:36;;;;;;;23.30;8.25;;;16.30;82.70;;;;;;5111092;28;20058;-76
2021/06/06 03:13:25;;;;;;;32.70;10.30;;;16.40;82.40;;;;;;5094479;28;20028;-77
2021/06/06 03:15:55;;;;;;;34.08;9.85;;;16.40;82.50;;;;;;5095283;28;20036;-77
2021/06/06 03:18:23;;;;;;;28.25;10.80;;;16.40;82.80;;;;;;5095767;28;20146;-76
2021/06/06 03:20:53;;;;;;;22.55;9.45;;;16.40;82.90;;;;;;5095319;28;20024;-76
2021/06/06 03:23:25;;;;;;;25.52;10.85;;;16.40;83.00;;;;;;5095903;28;20390;-76
2021/06/06 03:26:03;;;;;;;26.05;11.43;;;16.30;83.10;;;;;;5096169;28;20109;-76
2021/06/06 03:28:32;;;;;;;25.27;11.25;;;16.40;83.50;;;;;;5094131;28;20428;-76
2021/06/06 03:31:03;;;;;;;21.60;10.13;;;16.40;83.90;;;;;;5095217;28;20031;-76
2021/06/06 03:33:47;;;;;;;19.35;9.63;;;16.40;84.30;;;;;;5095887;28;20023;-76
2021/06/06 03:36:17;;;;;;;18.00;9.68;;;16.40;84.20;;;;;;5095062;28;20031;-76
2021/06/06 03:38:43;;;;;;;24.50;9.68;;;16.40;84.50;;;;;;5095104;28;20097;-76
2021/06/06 03:41:09;;;;;;;20.27;9.32;;;16.50;84.70;;;;;;5095101;28;20099;-76
2021/06/06 03:43:36;;;;;;;17.13;8.05;;;16.50;84.30;;;;;;5095916;28;20020;-76
2021/06/06 03:46:03;;;;;;;15.70;7.95;;;16.60;83.80;;;;;;5095339;28;20024;-76
2021/06/06 03:48:29;;;;;;;11.95;7.68;;;16.70;83.60;;;;;;5095130;28;20031;-76
2021/06/06 03:50:54;;;;;;;20.27;7.72;;;16.80;83.50;;;;;;5095065;28;20035;-76
2021/06/06 03:53:22;;;;;;;18.02;8.38;;;16.90;83.30;;;;;;5095259;28;20447;-76
2021/06/06 03:55:47;;;;;;;17.90;8.70;;;16.90;83.00;;;;;;5095331;28;20028;-76
2021/06/06 03:58:14;;;;;;;25.42;9.85;;;17.00;83.00;;;;;;5094915;28;20035;-76
2021/06/06 04:00:43;;;;;;;19.45;7.43;;;17.00;83.10;;;;;;5095000;28;20035;-75
2021/06/06 04:03:09;;;;;;;19.70;8.40;;;17.10;83.10;;;;;;5093434;28;20520;-76
2021/06/06 04:05:36;;;;;;;14.65;7.28;;;17.20;83.00;;;;;;5081075;28;20514;-76
2021/06/06 04:08:02;;;;;;;8.98;4.85;;;17.20;83.00;;;;;;5093254;28;20020;-73
2021/06/06 04:10:29;;;;;;;9.57;5.55;;;17.30;82.80;;;;;;5085205;28;20486;-73
2021/06/06 04:12:54;;;;;;;12.38;6.68;;;17.30;82.90;;;;;;5081125;28;20020;-75
2021/06/06 04:15:20;;;;;;;9.82;6.28;;;17.30;83.20;;;;;;5086654;28;20021;-74
2021/06/06 04:17:46;;;;;;;10.70;6.35;;;17.40;83.60;;;;;;5083018;28;20040;-75
2021/06/06 04:20:13;;;;;;;12.30;6.35;;;17.50;84.70;;;;;;5076980;28;20528;-75
2021/06/06 04:22:39;;;;;;;11.85;6.45;;;17.50;84.40;;;;;;5075905;28;20400;-75
2021/06/06 04:25:08;;;;;;;8.43;5.20;;;17.60;84.60;;;;;;5079444;28;20100;-75
2021/06/06 04:27:33;;;;;;;10.52;4.82;;;17.60;83.00;;;;;;5073549;28;20123;-75
2021/06/06 04:29:59;;;;;;;8.57;4.30;;;17.70;82.10;;;;;;5082014;28;20107;-75
2021/06/06 04:32:26;;;;;;;11.32;4.20;;;17.80;80.40;;;;;;5075726;28;20052;-78
2021/06/06 04:34:52;;;;;;;9.60;3.88;;;17.80;78.90;;;;;;5078419;28;20028;-81
2021/06/06 04:37:18;;;;;;;11.80;4.15;;;17.80;77.50;;;;;;5078939;28;20028;-81
2021/06/06 04:39:44;;;;;;;10.80;4.00;;;17.80;76.30;;;;;;5080435;28;20048;-80
2021/06/06 04:42:10;;;;;;;7.43;4.03;;;17.90;75.20;;;;;;5078176;28;20025;-82
2021/06/06 04:44:37;;;;;;;11.13;4.60;;;17.80;74.30;;;;;;5078527;28;20031;-80
2021/06/06 04:47:07;;;;;;;8.02;4.35;;;17.80;73.60;;;;;;5083060;28;20035;-77
2021/06/06 04:49:34;;;;;;;8.57;3.92;;;17.90;73.90;;;;;;5083011;28;20032;-79
2021/06/06 04:52:00;;;;;;;11.05;4.25;;;17.90;73.40;;;;;;5093489;28;20107;-83
2021/06/06 04:54:25;;;;;;;11.68;4.45;;;18.00;73.30;;;;;;5088364;28;20581;-78
2021/06/06 04:56:51;;;;;;;11.10;3.85;;;18.10;73.50;;;;;;5091662;28;20024;-76
2021/06/06 04:59:17;;;;;;;10.23;3.63;;;18.20;73.10;;;;;;5091896;28;20036;-86
2021/06/06 05:01:43;;;;;;;7.68;2.97;;;18.30;71.90;;;;;;5086163;28;20463;-77
2021/06/06 05:04:08;;;;;;;6.00;2.50;;;18.40;70.40;;;;;;5093374;28;20107;-78
2021/06/06 05:06:34;;;;;;;9.13;2.80;;;18.50;68.70;;;;;;5081629;28;20024;-77
2021/06/06 05:09:01;;;;;;;9.95;2.70;;;18.60;68.10;;;;;;5086851;28;20032;-78
2021/06/06 05:11:27;;;;;;;5.30;2.90;;;18.70;67.40;;;;;;5086686;28;20467;-79
2021/06/06 05:13:53;;;;;;;8.98;2.50;;;18.80;66.80;;;;;;5091397;28;20024;-79
2021/06/06 05:16:19;;;;;;;8.60;2.85;;;18.90;66.50;;;;;;5091077;28;20024;-79
2021/06/06 05:18:44;;;;;;;7.30;2.63;;;18.90;67.00;;;;;;5089990;28;20811;-77
2021/06/06 05:21:10;;;;;;;6.68;2.42;;;19.10;67.00;;;;;;5092298;28;20474;-75
2021/06/06 05:23:36;;;;;;;8.73;2.90;;;19.20;66.40;;;;;;5092740;28;20020;-73
2021/06/06 05:26:03;;;;;;;5.88;2.28;;;19.20;66.00;;;;;;5090839;28;20436;-73
2021/06/06 05:28:31;;;;;;;9.55;2.85;;;19.30;65.10;;;;;;5074664;28;20052;-73
2021/06/06 05:30:58;;;;;;;5.93;2.42;;;19.40;63.80;;;;;;5091156;28;20032;-73
2021/06/06 05:33:24;;;;;;;7.78;3.38;;;19.40;63.50;;;;;;5092919;28;20016;-74
2021/06/06 05:35:50;;;;;;;7.72;2.78;;;19.40;63.50;;;;;;5092527;28;20463;-73
2021/06/06 05:38:18;;;;;;;6.60;2.75;;;19.50;63.10;;;;;;5092324;28;20028;-73
2021/06/06 05:40:44;;;;;;;6.75;2.45;;;19.60;63.00;;;;;;5092645;28;20028;-73
2021/06/06 05:43:11;;;;;;;6.70;3.25;;;19.70;63.10;;;;;;5092566;28;20367;-73
2021/06/06 05:45:38;;;;;;;13.35;3.65;;;19.90;63.10;;;;;;5092723;28;20073;-73
2021/06/06 05:48:06;;;;;;;7.78;3.67;;;20.00;62.90;;;;;;5090922;28;20028;-75
2021/06/06 05:50:34;;;;;;;8.73;3.33;;;20.20;62.30;;;;;;5092126;28;20382;-75
2021/06/06 05:53:00;;;;;;;9.07;3.92;;;20.30;62.40;;;;;;5092534;28;20020;-75
2021/06/06 05:55:26;;;;;;;7.57;2.85;;;20.50;61.80;;;;;;5091994;28;20461;-75
2021/06/06 05:57:52;;;;;;;6.88;3.00;;;20.60;61.50;;;;;;5092318;28;20035;-75
2021/06/06 06:00:25;;;;;;;7.13;3.05;;;20.80;61.80;;;;;;5092334;28;20027;-75
2021/06/06 06:02:51;;;;;;;7.60;2.97;;;20.80;61.50;;;;;;5092373;28;20021;-75
2021/06/06 06:05:17;;;;;;;7.95;3.72;;;21.00;61.70;;;;;;5092547;28;20374;-76
2021/06/06 06:07:43;;;;;;;9.32;3.22;;;21.00;61.60;;;;;;5092551;28;20020;-76
2021/06/06 06:10:11;;;;;;;6.03;2.67;;;21.00;61.10;;;;;;5090803;28;20099;-76
2021/06/06 06:12:38;;;;;;;10.70;2.75;;;21.00;61.20;;;;;;5080656;28;20107;-75
2021/06/06 06:15:08;;;;;;;10.70;5.63;;;21.00;60.80;;;;;;5090157;28;20047;-75
2021/06/06 06:17:34;;;;;;;6.45;3.00;;;21.00;60.20;;;;;;5089976;28;20028;-76
2021/06/06 06:20:00;;;;;;;5.38;2.80;;;21.00;60.00;;;;;;5085236;28;20077;-76
2021/06/06 06:22:26;;;;;;;8.80;3.10;;;21.00;59.80;;;;;;5090892;28;20043;-73
2021/06/06 06:24:52;;;;;;;5.07;2.53;;;21.00;59.60;;;;;;5091593;28;20028;-76
2021/06/06 06:27:18;;;;;;;6.68;2.90;;;20.90;59.20;;;;;;5089437;28;20025;-75
2021/06/06 06:29:43;;;;;;;6.75;2.60;;;20.90;59.60;;;;;;5085780;28;20070;-76
2021/06/06 06:32:09;;;;;;;7.85;3.22;;;20.80;59.60;;;;;;5091258;28;20027;-76
2021/06/06 06:34:35;;;;;;;6.40;3.03;;;20.90;60.40;;;;;;5090643;28;20024;-75
2021/06/06 06:37:01;;;;;;;6.70;3.05;;;21.00;61.00;;;;;;5089315;28;20029;-76
2021/06/06 06:39:26;;;;;;;7.40;2.50;;;21.00;61.20;;;;;;5085637;28;20056;-73
2021/06/06 06:41:52;;;;;;;6.90;2.47;;;21.10;61.30;;;;;;5083604;28;20078;-74
2021/06/06 06:44:18;;;;;;;6.07;2.60;;;21.20;61.30;;;;;;5080200;28;20043;-79
2021/06/06 06:46:44;;;;;;;5.60;2.38;;;21.20;61.20;;;;;;5080409;28;20308;-79
2021/06/06 06:49:09;;;;;;;9.15;2.85;;;21.20;61.10;;;;;;5074842;28;20025;-79
2021/06/06 06:51:35;;;;;;;5.18;2.90;;;21.20;61.00;;;;;;5083540;28;20066;-79
2021/06/06 06:54:01;;;;;;;7.95;2.70;;;21.10;60.50;;;;;;5088801;28;20036;-79
2021/06/06 06:56:28;;;;;;;5.68;2.70;;;21.00;60.50;;;;;;5100725;28;20462;-79
2021/06/06 06:58:55;;;;;;;6.35;3.13;;;20.90;61.20;;;;;;5093691;28;20497;-79
2021/06/06 07:01:21;;;;;;;4.63;3.00;;;20.80;61.80;;;;;;5091849;28;20028;-79
2021/06/06 07:03:47;;;;;;;6.00;2.45;;;20.80;61.50;;;;;;5087151;28;20024;-79
2021/06/06 07:06:15;;;;;;;6.03;2.20;;;20.80;61.50;;;;;;5087841;28;20035;-79
2021/06/06 07:08:42;;;;;;;3.80;2.05;;;20.80;61.60;;;;;;5092848;28;20030;-78
2021/06/06 07:11:11;;;;;;;5.93;2.78;;;20.80;61.50;;;;;;5093512;28;20342;-79
2021/06/06 07:13:38;;;;;;;5.40;2.50;;;20.80;62.20;;;;;;5093939;28;20386;-78
2021/06/06 07:16:05;;;;;;;5.72;2.13;;;20.80;62.30;;;;;;5093920;28;20017;-81
2021/06/06 07:18:31;;;;;;;6.43;2.40;;;20.80;62.00;;;;;;5090156;28;20090;-81
2021/06/06 07:21:01;;;;;;;5.07;2.20;;;20.80;61.80;;;;;;5088370;28;20112;-81
2021/06/06 07:23:29;;;;;;;3.85;2.22;;;20.80;62.00;;;;;;5094723;28;20032;-81
2021/06/06 07:25:57;;;;;;;4.60;2.00;;;20.80;62.60;;;;;;5091906;28;20027;-81
2021/06/06 07:28:25;;;;;;;6.55;2.35;;;21.00;63.30;;;;;;5092798;28;20038;-81
2021/06/06 07:30:54;;;;;;;4.82;2.00;;;21.10;63.10;;;;;;5088068;28;20024;-80
2021/06/06 07:33:25;;;;;;;5.35;3.00;;;21.30;62.70;;;;;;5088223;28;20046;-79
2021/06/06 07:35:52;;;;;;;4.47;2.50;;;21.40;62.90;;;;;;5089195;28;20032;-78
2021/06/06 07:38:19;;;;;;;4.95;2.15;;;21.40;62.50;;;;;;5083514;28;20057;-79
2021/06/06 07:40:46;;;;;;;6.43;1.90;;;21.50;61.70;;;;;;5089561;28;20676;-75
2021/06/06 07:43:13;;;;;;;3.83;1.90;;;21.60;61.00;;;;;;5092220;28;20382;-76
2021/06/06 07:45:40;;;;;;;4.68;2.10;;;21.60;60.60;;;;;;5088205;28;20024;-82
2021/06/06 07:48:06;;;;;;;7.47;2.40;;;21.80;60.60;;;;;;5087746;28;20054;-82
2021/06/06 07:50:34;;;;;;;5.00;2.10;;;21.90;61.40;;;;;;5084130;28;20028;-82
2021/06/06 07:53:00;;;;;;;6.00;1.75;;;22.20;60.80;;;;;;5074922;28;20037;-82
2021/06/06 07:55:28;;;;;;;5.22;2.15;;;22.40;59.50;;;;;;5086017;28;20035;-83
2021/06/06 07:57:54;;;;;;;5.38;1.92;;;22.60;58.70;;;;;;5090855;28;20108;-75
2021/06/06 08:00:27;;;;;;;4.07;1.80;;;22.90;58.90;;;;;;5089701;28;20024;-75
2021/06/06 08:02:53;;;;;;;4.40;1.70;;;22.90;58.30;;;;;;5086708;28;20024;-84
2021/06/06 08:05:20;;;;;;;3.75;1.90;;;23.00;58.50;;;;;;5085659;28;20028;-82
2021/06/06 08:07:46;;;;;;;3.67;2.10;;;23.10;57.90;;;;;;5084339;28;20028;-82
2021/06/06 08:10:15;;;;;;;5.25;2.58;;;23.20;57.50;;;;;;5076723;28;20032;-74
2021/06/06 08:12:40;;;;;;;5.63;2.00;;;23.40;57.20;;;;;;5091996;28;20024;-82
2021/06/06 08:15:08;;;;;;;5.55;2.10;;;23.70;57.30;;;;;;5088927;28;20024;-82
2021/06/06 08:17:35;;;;;;;6.10;2.22;;;24.10;56.80;;;;;;5090786;28;20370;-83
2021/06/06 08:20:01;;;;;;;5.60;2.00;;;24.30;57.40;;;;;;5082848;28;20022;-82
2021/06/06 08:22:27;;;;;;;6.72;2.20;;;24.60;57.40;;;;;;5092019;28;20044;-80
2021/06/06 08:24:53;;;;;;;7.43;2.22;;;24.80;57.40;;;;;;5093579;28;20438;-81
2021/06/06 08:27:18;;;;;;;4.28;1.85;;;24.80;56.40;;;;;;5090933;28;20021;-81
2021/06/06 08:29:44;;;;;;;3.55;1.92;;;24.90;56.00;;;;;;5091043;28;20036;-80
2021/06/06 08:32:11;;;;;;;3.33;1.80;;;25.00;55.70;;;;;;5090505;28;20034;-84
2021/06/06 08:34:37;;;;;;;3.13;1.80;;;25.10;55.30;;;;;;5088014;28;20012;-83
2021/06/06 08:37:04;;;;;;;5.25;1.85;;;25.20;54.70;;;;;;5088141;28;20027;-83
2021/06/06 08:40:11;;;;;;;3.45;2.20;;;24.90;53.90;;;;;;5083404;28;20025;-83
2021/06/06 08:42:47;;;;;;;5.90;2.10;;;24.50;54.50;;;;;;5049243;28;20070;-84
2021/06/06 08:45:33;;;;;;;4.45;2.20;;;24.20;54.70;;;;;;5088874;28;20100;-84
2021/06/06 08:48:01;;;;;;;8.30;2.13;;;24.20;56.00;;;;;;5082704;28;20032;-82
2021/06/06 08:50:34;;;;;;;3.08;1.70;;;24.10;55.90;;;;;;5101437;28;20020;-82
2021/06/06 08:53:06;;;;;;;4.20;1.80;;;24.10;56.50;;;;;;5091459;28;20028;-82
2021/06/06 08:55:56;;;;;;;3.83;2.03;;;24.00;56.20;;;;;;5079254;28;20020;-82
2021/06/06 08:58:36;;;;;;;5.10;2.13;;;23.80;56.10;;;;;;5091151;28;20040;-81
2021/06/06 09:01:05;;;;;;;3.72;2.00;;;23.70;56.00;;;;;;5082955;28;20355;-81
2021/06/06 09:03:31;;;;;;;7.53;2.30;;;23.50;55.60;;;;;;5083883;28;20412;-81
2021/06/06 09:06:04;;;;;;;6.03;2.38;;;23.40;56.30;;;;;;5088594;28;20162;-82
2021/06/06 09:08:44;;;;;;;5.22;2.30;;;23.30;57.00;;;;;;5089094;28;20039;-87
2021/06/06 09:11:14;;;;;;;6.20;2.20;;;23.30;56.90;;;;;;5104814;28;20167;-76
2021/06/06 09:13:40;;;;;;;6.88;2.58;;;23.40;56.90;;;;;;5086488;28;20016;-76
2021/06/06 09:16:23;;;;;;;4.55;2.50;;;23.40;57.40;;;;;;5085742;28;20024;-72
2021/06/06 09:19:05;;;;;;;5.57;2.30;;;23.30;57.50;;;;;;5086379;28;20169;-73
2021/06/06 09:21:32;;;;;;;3.22;2.20;;;23.10;57.70;;;;;;5079585;28;20355;-70
2021/06/06 09:24:12;;;;;;;5.57;2.65;;;22.90;58.00;;;;;;5089549;28;20196;-71
2021/06/06 09:26:39;;;;;;;7.15;2.65;;;22.80;58.70;;;;;;5089309;28;20028;-69
2021/06/06 09:29:24;;;;;;;5.25;2.45;;;22.50;59.00;;;;;;5085087;28;20160;-74
2021/06/06 09:31:50;;;;;;;4.57;2.10;;;22.30;59.60;;;;;;5084338;28;20039;-75
2021/06/06 09:34:22;;;;;;;3.70;2.22;;;22.20;59.90;;;;;;5087375;28;20102;-75
2021/06/06 09:37:12;;;;;;;6.28;2.47;;;22.10;60.10;;;;;;5087272;28;20036;-75
2021/06/06 09:39:44;;;;;;;5.65;2.85;;;22.10;60.40;;;;;;5089219;28;20032;-76
2021/06/06 09:42:33;;;;;;;7.20;3.22;;;21.80;60.80;;;;;;5092651;28;20099;-76
2021/06/06 09:45:25;;;;;;;6.15;2.40;;;21.60;61.60;;;;;;5090545;28;20020;-76
2021/06/06 09:48:05;;;;;;;6.38;3.25;;;21.20;62.60;;;;;;5090335;28;20486;-76
2021/06/06 09:50:35;;;;;;;8.23;3.25;;;21.00;63.80;;;;;;5080777;28;20114;-76
2021/06/06 09:53:27;;;;;;;6.85;2.92;;;20.90;64.10;;;;;;5105837;28;20035;-76
2021/06/06 09:56:08;;;;;;;7.93;3.20;;;20.70;64.20;;;;;;5092710;28;20030;-76
2021/06/06 09:58:38;;;;;;;7.35;3.05;;;20.50;64.40;;;;;;5090204;28;20481;-76
2021/06/06 10:01:30;;;;;;;6.90;2.97;;;20.40;64.90;;;;;;5086818;28;20481;-76
2021/06/06 10:04:00;;;;;;;10.40;3.65;;;20.20;66.00;;;;;;5082163;28;20047;-76
2021/06/06 10:06:38;;;;;;;6.82;3.78;;;20.10;67.40;;;;;;5081829;28;20052;-76
2021/06/06 10:09:24;;;;;;;6.55;3.30;;;20.00;68.00;;;;;;5084910;28;20032;-77
2021/06/06 10:11:58;;;;;;;7.68;3.30;;;19.90;68.40;;;;;;5086429;28;20024;-76
2021/06/06 10:14:43;;;;;;;5.93;3.00;;;19.80;69.30;;;;;;5082500;28;20024;-76
2021/06/06 10:17:12;;;;;;;6.57;3.20;;;19.90;69.80;;;;;;5082006;28;20020;-76
2021/06/06 10:19:52;;;;;;;6.05;3.30;;;20.00;70.40;;;;;;5094271;28;20289;-76
2021/06/06 10:22:23;;;;;;;6.78;3.00;;;20.20;70.40;;;;;;5096559;28;20134;-76
2021/06/06 10:25:16;;;;;;;6.20;3.55;;;20.30;69.20;;;;;;5082377;28;20024;-76
2021/06/06 10:28:10;;;;;;;5.15;3.05;;;20.20;68.70;;;;;;5096245;28;20055;-76
2021/06/06 10:30:41;;;;;;;6.07;3.00;;;20.20;68.70;;;;;;5093535;28;20474;-77
2021/06/06 10:33:31;;;;;;;6.18;3.90;;;20.20;68.70;;;;;;5096286;28;20482;-76
2021/06/06 10:36:00;;;;;;;7.38;3.08;;;20.20;68.90;;;;;;5090607;28;20047;-76
2021/06/06 10:38:27;;;;;;;5.53;2.97;;;20.20;68.50;;;;;;5082192;28;20028;-75
2021/06/06 10:40:57;;;;;;;7.30;3.08;;;20.10;68.80;;;;;;5096463;28;20107;-76
2021/06/06 10:43:33;;;;;;;7.93;2.95;;;20.00;69.10;;;;;;5095933;28;20493;-77
2021/06/06 10:46:32;;;;;;;6.47;3.30;;;19.90;68.70;;;;;;5094973;28;20036;-76
2021/06/06 10:49:28;;;;;;;9.25;3.20;;;19.90;68.70;;;;;;5094932;28;20382;-76
2021/06/06 10:52:19;;;;;;;7.88;2.97;;;19.90;68.80;;;;;;5095415;28;20024;-76
2021/06/06 10:54:54;;;;;;;6.53;3.78;;;19.90;68.90;;;;;;5093931;28;20198;-76
2021/06/06 10:57:25;;;;;;;8.45;3.15;;;19.90;69.20;;;;;;5111534;28;20533;-76
2021/06/06 11:00:10;;;;;;;7.53;3.00;;;19.90;69.30;;;;;;5094213;28;20158;-76
2021/06/06 11:02:54;;;;;;;7.43;3.50;;;19.90;69.00;;;;;;5094255;28;20423;-76
2021/06/06 11:05:39;;;;;;;10.02;3.70;;;20.10;69.60;;;;;;5095500;28;20028;-77
2021/06/06 11:08:26;;;;;;;5.75;3.30;;;20.40;68.80;;;;;;5095830;28;20081;-76
2021/06/06 11:10:58;;;;;;;7.72;3.70;;;20.70;68.50;;;;;;5083294;28;20028;-77
2021/06/06 11:13:31;;;;;;;8.30;3.55;;;21.00;67.90;;;;;;5095165;28;20077;-76
2021/06/06 11:16:03;;;;;;;7.25;2.80;;;21.40;66.40;;;;;;5094330;28;20107;-76
2021/06/06 11:18:42;;;;;;;7.30;2.97;;;21.80;65.30;;;;;;5094516;28;20047;-76
2021/06/06 11:21:08;;;;;;;9.80;2.90;;;22.00;64.30;;;;;;5110302;28;20020;-76
2021/06/06 11:23:45;;;;;;;5.80;2.78;;;22.30;63.60;;;;;;5095087;28;20024;-77
2021/06/06 11:26:42;;;;;;;7.10;3.20;;;22.50;63.00;;;;;;5094975;28;20351;-76
2021/06/06 11:29:21;;;;;;;8.15;3.33;;;22.70;62.30;;;;;;5089200;28;20040;-76
2021/06/06 11:32:02;;;;;;;6.40;3.13;;;22.90;62.20;;;;;;5082804;28;20082;-77
2021/06/06 11:34:35;;;;;;;6.85;2.85;;;23.10;62.00;;;;;;5094646;28;20035;-76
2021/06/06 11:37:29;;;;;;;5.18;3.17;;;23.30;61.00;;;;;;5095089;28;20039;-76
2021/06/06 11:39:57;;;;;;;7.72;3.30;;;23.60;60.70;;;;;;5095023;28;20028;-76
2021/06/06 11:42:23;;;;;;;4.95;3.05;;;23.80;59.90;;;;;;5095258;28;20016;-76
2021/06/06 11:44:52;;;;;;;6.95;2.90;;;23.80;59.60;;;;;;5094029;28;20471;-76
2021/06/06 11:47:25;;;;;;;10.52;3.55;;;24.00;58.80;;;;;;5093906;28;20618;-77
2021/06/06 11:50:07;;;;;;;7.18;3.30;;;24.10;58.50;;;;;;5093158;28;20063;-76
2021/06/06 11:52:45;;;;;;;8.70;3.08;;;24.20;58.50;;;;;;5094363;28;20032;-76
2021/06/06 11:55:26;;;;;;;8.13;3.20;;;24.30;57.40;;;;;;5094483;28;20024;-77
2021/06/06 11:57:55;;;;;;;7.25;3.05;;;24.40;57.20;;;;;;5094726;28;20024;-77
2021/06/06 12:00:36;;;;;;;6.00;3.05;;;24.50;57.10;;;;;;5094200;28;20382;-76
2021/06/06 12:03:26;;;;;;;7.22;3.55;;;24.40;56.70;;;;;;5094897;28;20024;-76
2021/06/06 12:05:58;;;;;;;5.53;3.08;;;24.50;56.90;;;;;;5082996;28;20103;-77
2021/06/06 12:08:46;;;;;;;6.47;3.17;;;24.50;56.30;;;;;;5094051;28;20031;-76
2021/06/06 12:11:34;;;;;;;5.65;2.90;;;24.30;56.40;;;;;;5094486;28;20031;-77
2021/06/06 12:14:32;;;;;;;5.45;2.90;;;24.30;56.00;;;;;;5093042;28;20378;-75
2021/06/06 12:17:00;;;;;;;8.43;2.90;;;24.00;56.20;;;;;;5094419;28;20027;-76
2021/06/06 12:19:38;;;;;;;7.85;3.45;;;23.80;56.60;;;;;;5092346;28;20032;-76
2021/06/06 12:22:25;;;;;;;5.65;2.88;;;23.50;57.00;;;;;;5094106;28;20101;-76
2021/06/06 12:25:01;;;;;;;5.45;3.10;;;23.20;57.40;;;;;;5078496;28;20039;-76
2021/06/06 12:27:30;;;;;;;7.03;3.10;;;23.00;58.20;;;;;;5092761;28;20028;-76
2021/06/06 12:29:58;;;;;;;7.78;3.53;;;23.00;58.90;;;;;;5079649;28;20024;-76
2021/06/06 12:32:28;;;;;;;24.27;12.10;;;23.10;59.70;;;;;;5093611;28;20024;-76
2021/06/06 12:34:54;;;;;;;7.50;4.50;;;23.20;59.60;;;;;;5092294;28;20032;-76
2021/06/06 12:37:29;;;;;;;10.40;4.45;;;23.50;59.70;;;;;;5094011;28;20016;-76
2021/06/06 12:39:59;;;;;;;8.48;3.22;;;23.80;59.30;;;;;;5109143;28;20040;-76
2021/06/06 12:42:26;;;;;;;7.35;2.75;;;24.00;58.50;;;;;;5092926;28;20024;-76
2021/06/06 12:44:57;;;;;;;5.47;3.05;;;24.00;57.70;;;;;;5092279;28;20016;-76
2021/06/06 12:47:25;;;;;;;6.00;3.10;;;23.90;56.90;;;;;;5093727;28;20024;-78
2021/06/06 12:50:12;;;;;;;6.22;2.70;;;23.80;56.50;;;;;;5093645;28;20052;-76
2021/06/06 12:52:41;;;;;;;8.30;3.05;;;23.80;56.30;;;;;;5091655;28;20107;-76
2021/06/06 12:55:23;;;;;;;7.35;3.00;;;23.80;56.40;;;;;;5092992;28;20367;-76
2021/06/06 12:57:54;;;;;;;6.22;3.13;;;23.80;56.40;;;;;;5093553;28;20112;-76
2021/06/06 13:00:22;;;;;;;8.73;2.85;;;23.60;56.70;;;;;;5091820;28;20020;-76
2021/06/06 13:02:48;;;;;;;7.57;2.90;;;23.60;57.10;;;;;;5092800;28;20508;-76
2021/06/06 13:05:29;;;;;;;7.47;2.70;;;23.60;57.20;;;;;;5092010;28;20059;-76